createdAt,value
2018-10-16T00:00:54.912Z,13.33
2018-10-16T00:03:23.176Z,15.63
2018-10-16T00:05:51.464Z,12.37
2018-10-16T00:08:19.736Z,11.97
2018-10-16T00:10:48.012Z,12.23
2018-10-16T00:13:16.382Z,14.33
2018-10-16T00:15:44.682Z,13.33
2018-10-16T00:18:13.119Z,10.93
2018-10-16T00:20:41.744Z,12.63
2018-10-16T00:23:10.929Z,13.00
2018-10-16T00:25:39.262Z,13.73
2018-10-16T00:28:07.993Z,11.27
2018-10-16T00:30:36.272Z,11.60
2018-10-16T00:33:04.682Z,11.03
2018-10-16T00:35:32.952Z,11.90
2018-10-16T00:38:01.219Z,11.60
2018-10-16T00:40:29.529Z,16.60
2018-10-16T00:42:57.825Z,10.70
2018-10-16T00:45:26.121Z,11.27
2018-10-16T00:47:54.504Z,12.50
2018-10-16T00:50:22.785Z,11.97
2018-10-16T00:52:51.069Z,12.40
2018-10-16T00:55:19.326Z,14.50
2018-10-16T00:57:48.048Z,14.73
2018-10-16T01:00:16.375Z,11.20
2018-10-16T01:02:45.346Z,12.23
2018-10-16T01:05:13.958Z,13.10
2018-10-16T01:07:43.306Z,11.83
2018-10-16T01:10:12.446Z,12.63
2018-10-16T01:12:41.053Z,11.10
2018-10-16T01:15:11.401Z,12.37
2018-10-16T01:17:40.097Z,13.77
2018-10-16T01:20:11.036Z,12.53
2018-10-16T01:22:39.736Z,13.73
2018-10-16T01:25:09.895Z,13.07
2018-10-16T01:27:38.328Z,11.97
2018-10-16T01:30:08.036Z,11.60
2018-10-16T01:32:36.944Z,14.03
2018-10-16T01:35:06.380Z,14.77
2018-10-16T01:37:34.652Z,12.17
2018-10-16T01:40:03.253Z,12.13
2018-10-16T01:42:31.551Z,13.03
2018-10-16T01:44:59.825Z,11.93
2018-10-16T01:47:28.120Z,11.90
2018-10-16T01:49:56.424Z,12.77
2018-10-16T01:52:24.699Z,15.77
2018-10-16T01:54:52.961Z,12.50
2018-10-16T01:57:21.272Z,12.90
2018-10-16T01:59:49.549Z,13.07
2018-10-16T02:02:17.808Z,14.43
2018-10-16T02:04:46.101Z,13.23
2018-10-16T02:07:14.364Z,11.27
2018-10-16T02:09:43.361Z,14.37
2018-10-16T02:12:11.849Z,15.90
2018-10-16T02:14:40.190Z,14.13
2018-10-16T02:17:08.479Z,12.13
2018-10-16T02:19:36.769Z,13.27
2018-10-16T02:22:05.233Z,13.53
2018-10-16T02:24:33.561Z,13.73
2018-10-16T02:27:01.854Z,13.10
2018-10-16T02:29:30.160Z,14.37
2018-10-16T02:31:58.471Z,15.33
2018-10-16T02:34:26.745Z,12.70
2018-10-16T02:36:55.084Z,13.63
2018-10-16T02:39:23.531Z,12.93
2018-10-16T02:41:51.810Z,14.70
2018-10-16T02:44:20.109Z,13.70
2018-10-16T02:46:49.331Z,12.10
2018-10-16T02:49:17.633Z,15.40
2018-10-16T02:51:45.931Z,13.80
2018-10-16T02:54:14.249Z,13.60
2018-10-16T02:56:42.519Z,12.77
2018-10-16T02:59:10.797Z,15.57
2018-10-16T03:01:39.129Z,15.47
2018-10-16T03:04:07.497Z,13.93
2018-10-16T03:06:36.643Z,14.47
2018-10-16T03:09:07.027Z,17.23
2018-10-16T03:11:36.741Z,14.40
2018-10-16T03:14:08.799Z,16.63
2018-10-16T03:16:37.150Z,21.57
2018-10-16T03:19:05.449Z,18.83
2018-10-16T03:21:33.704Z,18.73
2018-10-16T03:24:01.987Z,20.57
2018-10-16T03:26:30.300Z,23.93
2018-10-16T03:28:58.587Z,18.53
2018-10-16T03:31:27.149Z,17.23
2018-10-16T03:33:55.449Z,15.43
2018-10-16T03:36:23.765Z,17.77
2018-10-16T03:38:52.077Z,14.73
2018-10-16T03:41:20.373Z,15.03
2018-10-16T03:43:56.216Z,15.80
2018-10-16T03:46:24.506Z,22.77
2018-10-16T03:48:53.193Z,23.17
2018-10-16T03:51:23.233Z,22.07
2018-10-16T03:53:52.289Z,19.47
2018-10-16T03:56:20.868Z,17.27
2018-10-16T03:58:49.446Z,14.73
2018-10-16T04:01:17.833Z,16.17
2018-10-16T04:03:46.165Z,16.00
2018-10-16T04:06:14.469Z,19.90
2018-10-16T04:08:45.305Z,14.90
2018-10-16T04:11:13.652Z,14.73
2018-10-16T04:13:41.929Z,19.87
2018-10-16T04:16:10.229Z,18.93
2018-10-16T04:18:38.538Z,15.07
2018-10-16T04:21:07.058Z,19.43
2018-10-16T04:23:35.438Z,18.03
2018-10-16T04:26:03.739Z,18.10
2018-10-16T04:28:32.088Z,23.27
2018-10-16T04:31:00.382Z,22.50
2018-10-16T04:33:28.696Z,23.37
2018-10-16T04:35:56.984Z,19.00
2018-10-16T04:38:25.290Z,20.67
2018-10-16T04:40:53.632Z,23.07
2018-10-16T04:43:21.965Z,22.67
2018-10-16T04:45:50.208Z,19.70
2018-10-16T04:48:18.656Z,20.27
2018-10-16T04:50:46.920Z,19.33
2018-10-16T04:53:15.257Z,20.77
2018-10-16T04:55:43.558Z,19.80
2018-10-16T04:58:11.877Z,19.17
2018-10-16T05:00:40.147Z,20.13
2018-10-16T05:03:08.438Z,24.40
2018-10-16T05:05:36.741Z,31.60
2018-10-16T05:08:05.347Z,44.83
2018-10-16T05:10:33.626Z,39.43
2018-10-16T05:13:01.953Z,33.27
2018-10-16T05:15:32.163Z,33.10
2018-10-16T05:18:00.473Z,33.77
2018-10-16T05:20:28.813Z,46.37
2018-10-16T05:22:58.203Z,36.70
2018-10-16T05:25:27.737Z,27.60
2018-10-16T05:27:56.495Z,19.97
2018-10-16T05:30:25.245Z,20.57
2018-10-16T05:32:53.515Z,21.23
2018-10-16T05:35:21.795Z,25.00
2018-10-16T05:37:50.138Z,24.13
2018-10-16T05:40:18.427Z,29.67
2018-10-16T05:42:46.993Z,37.90
2018-10-16T05:45:16.296Z,32.13
2018-10-16T05:47:45.229Z,38.00
2018-10-16T05:50:13.519Z,51.17
2018-10-16T05:52:41.815Z,60.13
2018-10-16T05:55:11.122Z,50.23
2018-10-16T05:57:39.449Z,36.27
2018-10-16T06:00:19.041Z,38.17
2018-10-16T06:02:47.811Z,34.90
2018-10-16T06:05:16.117Z,29.87
2018-10-16T06:07:44.789Z,26.57
2018-10-16T06:10:14.217Z,25.30
2018-10-16T06:12:42.532Z,23.23
2018-10-16T06:15:11.472Z,23.93
2018-10-16T06:17:39.785Z,25.53
2018-10-16T06:20:10.593Z,20.53
2018-10-16T06:22:38.947Z,29.03
2018-10-16T06:25:09.107Z,21.97
2018-10-16T06:27:37.542Z,20.77
2018-10-16T06:30:05.862Z,21.43
2018-10-16T06:32:34.173Z,20.40
2018-10-16T06:35:02.498Z,22.10
2018-10-16T06:37:31.370Z,27.87
2018-10-16T06:39:59.703Z,23.27
2018-10-16T06:42:29.144Z,28.50
2018-10-16T06:44:57.459Z,27.13
2018-10-16T06:47:25.830Z,29.17
2018-10-16T06:49:54.055Z,31.97
2018-10-16T06:52:22.387Z,27.83
2018-10-16T06:54:50.768Z,24.90
2018-10-16T06:57:25.438Z,23.30
2018-10-16T06:59:53.724Z,19.37
2018-10-16T07:02:22.006Z,23.60
2018-10-16T07:04:50.272Z,19.70
2018-10-16T07:07:19.980Z,19.43
2018-10-16T07:09:47.963Z,18.03
2018-10-16T07:12:16.264Z,20.07
2018-10-16T07:14:44.789Z,19.40
2018-10-16T07:17:13.116Z,20.73
2018-10-16T07:19:41.398Z,19.57
2018-10-16T07:22:11.182Z,18.67
2018-10-16T07:24:39.462Z,20.47
2018-10-16T07:27:07.844Z,21.93
2018-10-16T07:29:36.644Z,25.03
2018-10-16T07:32:05.437Z,19.07
2018-10-16T07:34:34.205Z,19.40
2018-10-16T07:37:02.507Z,22.83
2018-10-16T07:39:30.781Z,21.47
2018-10-16T07:41:59.038Z,17.30
2018-10-16T07:44:27.442Z,18.57
2018-10-16T07:46:55.757Z,19.90
2018-10-16T07:49:24.056Z,18.90
2018-10-16T07:51:52.341Z,20.60
2018-10-16T07:54:20.637Z,27.47
2018-10-16T07:56:49.148Z,21.87
2018-10-16T07:59:17.420Z,21.97
2018-10-16T08:01:45.706Z,22.20
2018-10-16T08:04:13.981Z,24.70
2018-10-16T08:06:42.316Z,22.30
2018-10-16T08:09:13.352Z,24.20
2018-10-16T08:11:46.640Z,23.03
2018-10-16T08:14:16.049Z,20.70
2018-10-16T08:16:45.986Z,22.83
2018-10-16T08:19:14.651Z,21.07
2018-10-16T08:21:43.572Z,22.13
2018-10-16T08:24:11.913Z,21.83
2018-10-16T08:26:40.538Z,31.13
2018-10-16T08:29:09.217Z,22.47
2018-10-16T08:31:37.826Z,22.27
2018-10-16T08:34:06.372Z,19.30
2018-10-16T08:36:34.962Z,19.13
2018-10-16T08:39:12.532Z,19.43
2018-10-16T08:42:50.327Z,22.43
2018-10-16T08:45:29.925Z,17.90
2018-10-16T08:48:09.533Z,18.97
2018-10-16T08:50:49.813Z,16.70
2018-10-16T08:53:18.111Z,14.57
2018-10-16T08:55:46.523Z,14.47
2018-10-16T08:58:14.789Z,13.73
2018-10-16T09:00:43.069Z,15.57
2018-10-16T09:03:11.395Z,19.70
2018-10-16T09:05:39.723Z,16.57
2018-10-16T09:08:08.019Z,20.67
2018-10-16T09:10:36.301Z,15.70
2018-10-16T09:13:04.670Z,16.83
2018-10-16T09:15:32.907Z,15.90
2018-10-16T09:18:01.186Z,15.67
2018-10-16T09:20:29.482Z,14.73
2018-10-16T09:22:57.774Z,13.97
2018-10-16T09:25:26.428Z,16.83
2018-10-16T09:27:54.721Z,11.53
2018-10-16T09:30:23.106Z,12.20
2018-10-16T09:32:51.382Z,14.30
2018-10-16T09:35:19.686Z,21.77
2018-10-16T09:37:48.070Z,15.73
2018-10-16T09:40:16.271Z,11.53
2018-10-16T09:42:44.561Z,12.33
2018-10-16T09:45:12.846Z,11.47
2018-10-16T09:47:41.114Z,12.33
2018-10-16T09:50:10.306Z,12.23
2018-10-16T09:52:38.631Z,14.73
2018-10-16T09:55:07.856Z,12.67
2018-10-16T09:57:36.137Z,10.17
2018-10-16T10:00:06.879Z,14.13
2018-10-16T10:02:35.186Z,11.47
2018-10-16T10:05:03.477Z,9.97
2018-10-16T10:07:31.786Z,11.37
2018-10-16T10:10:00.059Z,14.10
2018-10-16T10:12:28.351Z,10.43
2018-10-16T10:14:56.642Z,10.57
2018-10-16T10:17:24.925Z,8.00
2018-10-16T10:19:53.172Z,10.80
2018-10-16T10:22:21.581Z,9.07
2018-10-16T10:24:49.890Z,21.33
2018-10-16T10:27:18.166Z,10.43
2018-10-16T10:29:46.492Z,11.97
2018-10-16T10:32:14.856Z,11.17
2018-10-16T10:34:43.122Z,9.87
2018-10-16T10:37:11.396Z,10.40
2018-10-16T10:39:40.557Z,10.20
2018-10-16T10:42:08.837Z,8.13
2018-10-16T10:44:37.113Z,9.50
2018-10-16T10:47:05.853Z,11.87
2018-10-16T10:49:34.161Z,9.07
2018-10-16T10:52:02.571Z,8.30
2018-10-16T10:54:30.845Z,9.13
2018-10-16T10:56:59.229Z,9.17
2018-10-16T10:59:27.421Z,12.53
2018-10-16T11:01:55.720Z,9.77
2018-10-16T11:04:24.070Z,10.33
2018-10-16T11:06:52.341Z,9.83
2018-10-16T11:09:20.653Z,7.03
2018-10-16T11:11:55.286Z,7.20
2018-10-16T11:14:24.616Z,7.80
2018-10-16T11:16:52.887Z,8.00
2018-10-16T11:19:23.120Z,7.07
2018-10-16T11:21:51.894Z,8.03
2018-10-16T11:24:20.169Z,8.37
2018-10-16T11:26:48.453Z,12.20
2018-10-16T11:29:16.793Z,12.03
2018-10-16T11:31:45.141Z,7.20
2018-10-16T11:34:13.435Z,7.97
2018-10-16T11:36:42.093Z,7.37
2018-10-16T11:39:11.759Z,9.63
2018-10-16T11:41:40.983Z,9.50
2018-10-16T11:44:11.149Z,6.47
2018-10-16T11:46:39.558Z,10.13
2018-10-16T11:49:08.225Z,6.90
2018-10-16T11:51:36.820Z,7.07
2018-10-16T11:54:05.874Z,6.90
2018-10-16T11:56:34.290Z,6.97
2018-10-16T11:59:02.586Z,16.53
2018-10-16T12:01:30.923Z,7.73
2018-10-16T12:03:59.236Z,8.27
2018-10-16T12:06:27.558Z,7.10
2018-10-16T12:08:55.829Z,8.43
2018-10-16T12:11:24.192Z,9.80
2018-10-16T12:13:52.555Z,8.77
2018-10-16T12:16:24.310Z,8.50
2018-10-16T12:18:57.983Z,9.47
2018-10-16T12:21:26.251Z,9.13
2018-10-16T12:23:55.816Z,10.23
2018-10-16T12:26:24.082Z,8.63
2018-10-16T12:28:52.384Z,7.90
2018-10-16T12:31:20.647Z,9.37
2018-10-16T12:33:48.941Z,10.80
2018-10-16T12:36:17.280Z,9.43
2018-10-16T12:38:45.589Z,8.67
2018-10-16T12:41:13.933Z,7.13
2018-10-16T12:43:42.282Z,7.50
2018-10-16T12:46:10.530Z,7.77
2018-10-16T12:48:38.790Z,8.70
2018-10-16T12:51:07.621Z,7.13
2018-10-16T12:53:35.964Z,8.53
2018-10-16T12:56:04.380Z,10.17
2018-10-16T12:58:32.610Z,7.03
2018-10-16T13:01:00.927Z,9.63
2018-10-16T13:03:29.278Z,7.10
2018-10-16T13:05:57.567Z,6.80
2018-10-16T13:08:25.910Z,9.47
2018-10-16T13:10:54.195Z,11.87
2018-10-16T13:13:22.508Z,9.27
2018-10-16T13:15:50.820Z,7.23
2018-10-16T13:18:19.135Z,7.33
2018-10-16T13:20:47.422Z,7.50
2018-10-16T13:23:15.778Z,8.57
2018-10-16T13:25:44.070Z,12.13
2018-10-16T13:28:12.504Z,7.97
2018-10-16T13:30:41.421Z,8.77
2018-10-16T13:33:09.722Z,14.63
2018-10-16T13:35:38.042Z,7.77
2018-10-16T13:38:06.364Z,8.40
2018-10-16T13:40:35.666Z,9.60
2018-10-16T13:43:04.167Z,11.27
2018-10-16T13:45:32.428Z,7.47
2018-10-16T13:48:00.732Z,11.57
2018-10-16T13:50:29.025Z,8.03
2018-10-16T13:52:58.166Z,6.10
2018-10-16T13:55:26.482Z,6.23
2018-10-16T13:57:54.758Z,8.63
2018-10-16T14:00:23.050Z,7.23
2018-10-16T14:02:52.560Z,5.97
2018-10-16T14:05:20.879Z,5.73
2018-10-16T14:07:49.210Z,11.63
2018-10-16T14:10:17.950Z,8.43
2018-10-16T14:12:47.086Z,8.77
2018-10-16T14:15:19.828Z,7.97
2018-10-16T14:17:49.268Z,7.10
2018-10-16T14:20:17.557Z,8.77
2018-10-16T14:22:45.860Z,6.10
2018-10-16T14:25:15.186Z,8.20
2018-10-16T14:27:43.685Z,6.80
2018-10-16T14:30:13.170Z,7.63
2018-10-16T14:32:42.758Z,7.40
2018-10-16T14:35:11.697Z,7.13
2018-10-16T14:37:40.478Z,5.57
2018-10-16T14:40:10.760Z,8.63
2018-10-16T14:42:39.497Z,8.90
2018-10-16T14:45:09.030Z,5.63
2018-10-16T14:47:37.317Z,5.60
2018-10-16T14:50:05.821Z,6.13
2018-10-16T14:52:34.145Z,5.90
2018-10-16T14:55:02.581Z,10.47
2018-10-16T14:57:30.884Z,6.07
2018-10-16T14:59:59.266Z,8.63
2018-10-16T15:02:27.576Z,6.20
2018-10-16T15:04:55.916Z,6.57
2018-10-16T15:07:24.205Z,6.33
2018-10-16T15:09:52.636Z,6.40
2018-10-16T15:12:25.085Z,6.50
2018-10-16T15:14:53.361Z,7.20
2018-10-16T15:17:29.075Z,6.83
2018-10-16T15:19:57.623Z,5.50
2018-10-16T15:22:26.253Z,9.27
2018-10-16T15:24:54.543Z,5.80
2018-10-16T15:27:23.229Z,8.47
2018-10-16T15:29:52.011Z,8.63
2018-10-16T15:32:20.319Z,5.50
2018-10-16T15:34:48.655Z,6.03
2018-10-16T15:37:17.283Z,5.30
2018-10-16T15:39:46.519Z,6.23
2018-10-16T15:42:14.972Z,6.07
2018-10-16T15:44:43.241Z,5.00
2018-10-16T15:47:11.757Z,8.43
2018-10-16T15:49:40.103Z,8.70
2018-10-16T15:52:08.496Z,5.37
2018-10-16T15:54:36.805Z,5.93
2018-10-16T15:57:05.225Z,5.77
2018-10-16T15:59:33.508Z,7.17
2018-10-16T16:02:01.864Z,6.13
2018-10-16T16:04:30.132Z,8.43
2018-10-16T16:06:58.467Z,6.10
2018-10-16T16:09:26.796Z,6.27
2018-10-16T16:11:55.195Z,5.10
2018-10-16T16:14:23.417Z,5.17
2018-10-16T16:16:51.754Z,7.23
2018-10-16T16:19:20.070Z,5.20
2018-10-16T16:21:48.362Z,5.47
2018-10-16T16:24:16.761Z,5.47
2018-10-16T16:26:45.053Z,6.00
2018-10-16T16:29:13.345Z,5.00
2018-10-16T16:31:41.707Z,5.53
2018-10-16T16:34:09.973Z,5.50
2018-10-16T16:36:38.376Z,5.67
2018-10-16T16:39:09.419Z,5.87
2018-10-16T16:41:37.743Z,5.70
2018-10-16T16:44:06.095Z,6.50
2018-10-16T16:46:34.358Z,5.83
2018-10-16T16:49:02.653Z,5.37
2018-10-16T16:51:31.640Z,7.60
2018-10-16T16:53:59.974Z,5.43
2018-10-16T16:56:28.290Z,5.53
2018-10-16T16:58:56.681Z,4.93
2018-10-16T17:01:25.023Z,5.43
2018-10-16T17:03:53.384Z,7.17
2018-10-16T17:06:21.736Z,5.60
2018-10-16T17:08:50.048Z,5.73
2018-10-16T17:11:18.503Z,5.63
2018-10-16T17:13:46.824Z,6.30
2018-10-16T17:16:15.120Z,6.37
2018-10-16T17:18:43.511Z,6.70
2018-10-16T17:21:11.860Z,8.37
2018-10-16T17:23:40.175Z,6.40
2018-10-16T17:26:08.809Z,5.87
2018-10-16T17:28:37.059Z,7.50
2018-10-16T17:31:05.683Z,8.67
2018-10-16T17:33:34.112Z,6.13
2018-10-16T17:36:02.450Z,9.20
2018-10-16T17:38:31.685Z,7.80
2018-10-16T17:41:00.047Z,6.03
2018-10-16T17:43:28.389Z,6.00
2018-10-16T17:45:56.763Z,5.77
2018-10-16T17:48:25.250Z,7.07
2018-10-16T17:50:53.656Z,6.13
2018-10-16T17:53:22.012Z,5.10
2018-10-16T17:55:50.400Z,5.70
2018-10-16T17:58:19.428Z,7.10
2018-10-16T18:00:47.813Z,7.33
2018-10-16T18:03:16.260Z,6.17
2018-10-16T18:05:44.704Z,6.00
2018-10-16T18:08:13.196Z,9.17
2018-10-16T18:10:41.905Z,8.67
2018-10-16T18:13:10.285Z,14.30
2018-10-16T18:15:39.696Z,13.50
2018-10-16T18:18:08.139Z,10.73
2018-10-16T18:20:36.590Z,11.37
2018-10-16T18:23:05.529Z,10.03
2018-10-16T18:25:34.003Z,8.57
2018-10-16T18:28:02.875Z,7.53
2018-10-16T18:30:31.345Z,6.63
2018-10-16T18:32:59.893Z,9.30
2018-10-16T18:35:28.324Z,7.27
2018-10-16T18:37:56.769Z,9.00
2018-10-16T18:40:25.182Z,8.20
2018-10-16T18:42:53.578Z,7.80
2018-10-16T18:45:22.006Z,5.63
2018-10-16T18:47:50.447Z,9.37
2018-10-16T18:50:18.864Z,9.50
2018-10-16T18:52:47.865Z,8.60
2018-10-16T18:55:16.290Z,9.80
2018-10-16T18:57:45.017Z,10.23
2018-10-16T19:00:16.041Z,11.77
2018-10-16T19:02:44.551Z,9.93
2018-10-16T19:05:15.433Z,9.27
2018-10-16T19:07:43.867Z,9.07
2018-10-16T19:10:12.288Z,8.07
2018-10-16T19:12:41.890Z,7.67
2018-10-16T19:15:11.900Z,11.33
2018-10-16T19:17:40.497Z,8.33
2018-10-16T19:20:10.754Z,7.93
2018-10-16T19:22:39.317Z,9.00
2018-10-16T19:25:08.745Z,6.73
2018-10-16T19:27:37.555Z,11.80
2018-10-16T19:30:07.592Z,9.00
2018-10-16T19:32:36.770Z,7.83
2018-10-16T19:35:05.348Z,10.67
2018-10-16T19:37:34.916Z,9.70
2018-10-16T19:40:03.404Z,8.00
2018-10-16T19:42:33.558Z,7.27
2018-10-16T19:45:02.091Z,12.57
2018-10-16T19:47:30.680Z,9.40
2018-10-16T19:50:00.415Z,11.57
2018-10-16T19:52:28.866Z,11.20
2018-10-16T19:54:57.280Z,10.77
2018-10-16T19:57:25.710Z,10.07
2018-10-16T19:59:54.525Z,11.80
2018-10-16T20:02:22.920Z,7.70
2018-10-16T20:04:51.740Z,9.33
2018-10-16T20:07:20.250Z,12.57
2018-10-16T20:09:48.616Z,10.43
2018-10-16T20:12:17.027Z,8.23
2018-10-16T20:14:45.769Z,7.03
2018-10-16T20:17:14.173Z,7.37
2018-10-16T20:19:42.644Z,7.53
2018-10-16T20:22:11.772Z,7.80
2018-10-16T20:24:40.303Z,7.83
2018-10-16T20:27:08.697Z,19.83
2018-10-16T20:29:37.052Z,14.10
2018-10-16T20:32:05.620Z,91.60
2018-10-16T20:34:34.180Z,26.23
2018-10-16T20:37:02.624Z,13.90
2018-10-16T20:39:31.000Z,10.50
2018-10-16T20:41:59.402Z,10.27
2018-10-16T20:44:28.012Z,8.83
2018-10-16T20:46:56.329Z,9.93
2018-10-16T20:49:24.682Z,7.50
2018-10-16T20:51:54.856Z,8.10
2018-10-16T20:54:23.406Z,10.63
2018-10-16T20:56:51.747Z,9.23
2018-10-16T20:59:22.718Z,9.53
2018-10-16T21:01:51.118Z,9.90
2018-10-16T21:04:19.432Z,10.37
2018-10-16T21:06:48.023Z,8.77
2018-10-16T21:09:16.014Z,9.47
2018-10-16T21:11:44.310Z,10.13
2018-10-16T21:14:13.149Z,12.27
2018-10-16T21:16:43.383Z,12.23
2018-10-16T21:19:11.753Z,9.90
2018-10-16T21:21:39.983Z,9.20
2018-10-16T21:24:08.620Z,13.40
2018-10-16T21:26:37.996Z,15.00
2018-10-16T21:29:06.674Z,21.60
2018-10-16T21:31:34.877Z,25.40
2018-10-16T21:34:03.262Z,24.57
2018-10-16T21:36:31.574Z,21.47
2018-10-16T21:38:59.874Z,18.77
2018-10-16T21:41:28.170Z,17.60
2018-10-16T21:43:56.627Z,17.80
2018-10-16T21:46:25.016Z,16.13
2018-10-16T21:48:53.368Z,18.40
2018-10-16T21:51:21.990Z,15.97
2018-10-16T21:53:50.302Z,11.17
2018-10-16T21:56:18.620Z,11.47
2018-10-16T21:58:46.901Z,12.00
2018-10-16T22:01:16.304Z,13.20
2018-10-16T22:03:44.625Z,12.97
2018-10-16T22:06:17.416Z,13.63
2018-10-16T22:08:45.737Z,12.73
2018-10-16T22:11:14.121Z,14.90
2018-10-16T22:13:42.586Z,13.93
2018-10-16T22:16:10.903Z,12.73
2018-10-16T22:18:39.987Z,17.80
2018-10-16T22:21:08.551Z,12.97
2018-10-16T22:23:36.875Z,15.93
2018-10-16T22:26:06.039Z,14.07
2018-10-16T22:28:34.980Z,13.73
2018-10-16T22:31:04.109Z,13.67
2018-10-16T22:33:32.421Z,17.13
2018-10-16T22:36:00.872Z,15.90
2018-10-16T22:38:29.201Z,14.73
2018-10-16T22:40:57.554Z,13.50
2018-10-16T22:43:26.137Z,19.07
2018-10-16T22:45:54.477Z,14.33
2018-10-16T22:48:22.790Z,13.80
2018-10-16T22:50:51.065Z,15.90
2018-10-16T22:53:19.363Z,12.60
2018-10-16T22:55:47.650Z,12.53
2018-10-16T22:58:16.081Z,13.23
2018-10-16T23:00:45.282Z,13.50
2018-10-16T23:03:13.618Z,14.77
2018-10-16T23:05:41.949Z,14.50
2018-10-16T23:08:10.282Z,14.80
2018-10-16T23:10:38.622Z,16.43
2018-10-16T23:13:08.122Z,12.90
2018-10-16T23:15:38.660Z,11.13
2018-10-16T23:18:06.951Z,12.87
2018-10-16T23:20:35.511Z,16.40
2018-10-16T23:23:05.998Z,13.83
2018-10-16T23:25:34.638Z,13.03
2018-10-16T23:28:02.938Z,14.37
2018-10-16T23:30:31.215Z,14.30
2018-10-16T23:32:59.517Z,14.23
2018-10-16T23:35:27.909Z,12.73
2018-10-16T23:37:57.201Z,13.43
2018-10-16T23:40:25.505Z,11.90
2018-10-16T23:42:53.824Z,13.50
2018-10-16T23:45:22.103Z,13.40
2018-10-16T23:47:50.422Z,13.83
2018-10-16T23:50:19.433Z,14.67
2018-10-16T23:52:47.952Z,12.57
2018-10-16T23:55:16.277Z,14.33
2018-10-16T23:57:44.593Z,12.10
